Time;durP1;ratioP1;P1;durP2;ratioP2;P2;SDS_P1;SDS_P2;PMS_P1;PMS_P2;Temp;Humidity;BMP_temperature;BMP_pressure;BME280_temperature;BME280_humidity;BME280_pressure;Samples;Min_cycle;Max_cycle;Signal;HPM_P1;HPM_P2
2023/11/26 00:00:18;;;;;;;5.90;3.37;;;;;;;;;;5101155;28;20248;-63
2023/11/26 00:02:47;;;;;;;7.40;2.80;;;;;;;;;;5101269;28;20228;-63
2023/11/26 00:05:16;;;;;;;5.17;2.50;;;;;;;;;;5101230;28;20216;-63
2023/11/26 00:07:44;;;;;;;10.37;3.40;;;;;;;;;;5101123;28;20201;-63
2023/11/26 00:10:13;;;;;;;7.73;3.97;;;;;;;;;;5101188;28;20288;-63
2023/11/26 00:12:41;;;;;;;7.77;3.60;;;;;;;;;;5089884;28;20253;-63
2023/11/26 00:15:13;;;;;;;9.90;3.13;;;;;;;;;;5101195;28;20297;-63
2023/11/26 00:17:42;;;;;;;6.97;2.57;;;;;;;;;;5100728;28;20224;-63
2023/11/26 00:20:12;;;;;;;10.30;2.93;;;;;;;;;;5100476;28;20233;-63
2023/11/26 00:22:41;;;;;;;8.37;3.03;;;;;;;;;;5100785;28;20289;-63
2023/11/26 00:25:09;;;;;;;9.67;3.07;;;;;;;;;;5100643;28;20657;-63
2023/11/26 00:27:37;;;;;;;5.93;2.33;;;;;;;;;;5100721;28;20209;-63
2023/11/26 00:30:06;;;;;;;8.37;2.70;;;;;;;;;;5100768;28;20205;-63
2023/11/26 00:32:34;;;;;;;6.97;2.70;;;;;;;;;;5100775;28;20225;-63
2023/11/26 00:35:03;;;;;;;7.83;2.80;;;;;;;;;;5100255;28;20239;-63
2023/11/26 00:37:33;;;;;;;6.23;2.57;;;;;;;;;;5100442;28;20205;-62
2023/11/26 00:40:01;;;;;;;6.30;2.47;;;;;;;;;;5100432;28;20225;-63
2023/11/26 00:42:29;;;;;;;8.50;2.60;;;;;;;;;;5100456;28;20229;-63
2023/11/26 00:44:57;;;;;;;6.30;2.80;;;;;;;;;;5100662;28;20217;-63
2023/11/26 00:47:25;;;;;;;10.43;2.63;;;;;;;;;;5100255;28;20217;-63
2023/11/26 00:49:55;;;;;;;5.77;3.50;;;;;;;;;;5100279;28;20548;-63
2023/11/26 00:52:24;;;;;;;10.57;4.90;;;;;;;;;;5099739;28;20262;-63
2023/11/26 00:54:54;;;;;;;10.60;4.97;;;;;;;;;;5100372;28;20224;-63
2023/11/26 00:57:22;;;;;;;11.83;5.00;;;;;;;;;;5100127;28;20207;-64
2023/11/26 00:59:50;;;;;;;13.47;6.07;;;;;;;;;;5100222;28;20221;-63
2023/11/26 01:02:21;;;;;;;11.27;6.17;;;;;;;;;;5099986;28;20607;-63
2023/11/26 01:04:50;;;;;;;14.37;5.10;;;;;;;;;;5100131;28;20446;-63
2023/11/26 01:07:18;;;;;;;9.03;5.53;;;;;;;;;;5099735;28;20471;-63
2023/11/26 01:09:46;;;;;;;13.63;5.57;;;;;;;;;;5100049;28;20435;-63
2023/11/26 01:12:16;;;;;;;9.90;5.17;;;;;;;;;;5089677;28;20483;-63
2023/11/26 01:14:44;;;;;;;12.20;5.87;;;;;;;;;;5099984;28;20450;-63
2023/11/26 01:17:12;;;;;;;13.70;5.57;;;;;;;;;;5099623;28;20815;-62
2023/11/26 01:19:41;;;;;;;13.17;6.00;;;;;;;;;;5099984;28;20444;-63
2023/11/26 01:22:10;;;;;;;10.77;5.63;;;;;;;;;;5099397;28;20455;-63
2023/11/26 01:24:38;;;;;;;12.77;5.50;;;;;;;;;;5099655;28;20531;-63
2023/11/26 01:27:06;;;;;;;8.80;5.57;;;;;;;;;;5099689;28;20444;-63
2023/11/26 01:29:37;;;;;;;13.00;6.23;;;;;;;;;;5099690;28;20454;-63
2023/11/26 01:32:05;;;;;;;8.77;5.03;;;;;;;;;;5099395;28;20467;-64
2023/11/26 01:34:33;;;;;;;9.30;5.53;;;;;;;;;;5099268;28;20982;-63
2023/11/26 01:37:01;;;;;;;9.23;5.00;;;;;;;;;;5098900;28;20942;-63
2023/11/26 01:39:30;;;;;;;10.33;5.07;;;;;;;;;;5099706;28;20206;-63
2023/11/26 01:41:58;;;;;;;7.73;5.00;;;;;;;;;;5099166;28;20237;-63
2023/11/26 01:44:26;;;;;;;10.77;5.77;;;;;;;;;;5099481;28;20209;-63
2023/11/26 01:46:57;;;;;;;11.10;5.10;;;;;;;;;;5098663;28;20255;-63
2023/11/26 01:49:25;;;;;;;15.57;5.60;;;;;;;;;;5099292;28;20236;-63
2023/11/26 01:51:53;;;;;;;12.43;5.27;;;;;;;;;;5098595;28;20579;-63
2023/11/26 01:54:21;;;;;;;12.77;4.97;;;;;;;;;;5099217;28;20439;-64
2023/11/26 01:56:49;;;;;;;7.97;4.40;;;;;;;;;;5099161;28;20206;-63
2023/11/26 01:59:18;;;;;;;11.90;5.53;;;;;;;;;;5099024;28;20217;-63
2023/11/26 02:01:46;;;;;;;11.23;4.67;;;;;;;;;;5098933;28;20234;-63
2023/11/26 02:04:16;;;;;;;13.87;4.40;;;;;;;;;;5098683;28;20254;-63
2023/11/26 02:06:44;;;;;;;10.03;4.43;;;;;;;;;;5098370;28;20209;-63
2023/11/26 02:09:13;;;;;;;8.50;5.17;;;;;;;;;;5098579;28;20574;-63
2023/11/26 02:11:41;;;;;;;5.43;3.90;;;;;;;;;;5091994;28;20226;-63
2023/11/26 02:14:09;;;;;;;7.50;3.97;;;;;;;;;;5094013;28;20228;-63
2023/11/26 02:16:37;;;;;;;6.53;4.30;;;;;;;;;;5098842;28;20216;-63
2023/11/26 02:19:09;;;;;;;7.37;3.90;;;;;;;;;;5098368;28;20922;-63
2023/11/26 02:21:39;;;;;;;6.50;3.10;;;;;;;;;;5098226;28;20237;-64
2023/11/26 02:24:09;;;;;;;6.20;3.90;;;;;;;;;;5098443;28;20447;-63
2023/11/26 02:26:39;;;;;;;7.20;3.40;;;;;;;;;;5098887;28;20209;-63
2023/11/26 02:29:08;;;;;;;3.73;3.23;;;;;;;;;;5098573;28;20440;-63
2023/11/26 02:31:36;;;;;;;7.37;3.60;;;;;;;;;;5098433;28;20226;-63
2023/11/26 02:34:04;;;;;;;8.07;3.70;;;;;;;;;;5098107;28;20236;-63
2023/11/26 02:36:32;;;;;;;13.27;4.50;;;;;;;;;;5098119;28;20216;-63
2023/11/26 02:39:00;;;;;;;9.80;3.93;;;;;;;;;;5098221;28;20217;-63
2023/11/26 02:41:28;;;;;;;8.67;3.70;;;;;;;;;;5098030;28;20678;-63
2023/11/26 02:43:58;;;;;;;7.20;3.20;;;;;;;;;;5098098;28;20288;-63
2023/11/26 02:46:27;;;;;;;6.47;4.00;;;;;;;;;;5098204;28;20202;-63
2023/11/26 02:48:55;;;;;;;7.53;3.30;;;;;;;;;;5098123;28;20653;-63
2023/11/26 02:51:24;;;;;;;10.30;3.93;;;;;;;;;;5097967;28;20221;-63
2023/11/26 02:53:52;;;;;;;6.53;3.63;;;;;;;;;;5098221;28;20210;-63
2023/11/26 02:56:20;;;;;;;8.70;3.90;;;;;;;;;;5097918;28;20684;-63
2023/11/26 02:58:48;;;;;;;9.37;3.07;;;;;;;;;;5097255;28;20240;-63
2023/11/26 03:01:18;;;;;;;7.00;3.40;;;;;;;;;;5097874;28;20226;-63
2023/11/26 03:03:47;;;;;;;11.30;3.47;;;;;;;;;;5097811;28;20205;-63
2023/11/26 03:06:17;;;;;;;7.67;4.60;;;;;;;;;;5097635;28;20202;-63
2023/11/26 03:08:45;;;;;;;7.23;3.40;;;;;;;;;;5098030;28;20216;-63
2023/11/26 03:13:59;;;;;;;6.43;3.47;;;;;;;;;;5092293;28;20288;-63
2023/11/26 03:16:29;;;;;;;8.63;3.20;;;;;;;;;;5098498;28;20237;-63
2023/11/26 03:18:57;;;;;;;9.43;3.40;;;;;;;;;;5097550;28;20617;-63
2023/11/26 03:21:28;;;;;;;6.67;3.37;;;;;;;;;;5097213;28;20593;-63
2023/11/26 03:23:57;;;;;;;6.77;3.43;;;;;;;;;;5097632;28;20233;-63
2023/11/26 03:26:26;;;;;;;10.40;3.00;;;;;;;;;;5097718;28;20661;-63
2023/11/26 03:28:55;;;;;;;5.53;3.17;;;;;;;;;;5097729;28;20205;-63
2023/11/26 03:31:24;;;;;;;9.30;3.20;;;;;;;;;;5097451;28;20724;-63
2023/11/26 03:33:54;;;;;;;6.87;3.63;;;;;;;;;;5097348;28;20237;-63
2023/11/26 03:36:22;;;;;;;6.63;3.37;;;;;;;;;;5097413;28;20201;-63
2023/11/26 03:38:50;;;;;;;15.73;4.17;;;;;;;;;;5097441;28;20381;-63
2023/11/26 03:41:19;;;;;;;10.47;3.80;;;;;;;;;;5097555;28;20224;-63
2023/11/26 03:43:47;;;;;;;6.77;3.00;;;;;;;;;;5097474;28;20212;-63
2023/11/26 03:46:16;;;;;;;6.93;2.90;;;;;;;;;;5097686;28;20292;-63
2023/11/26 03:48:46;;;;;;;6.47;3.43;;;;;;;;;;5097733;28;20465;-63
2023/11/26 03:51:20;;;;;;;4.77;2.87;;;;;;;;;;5096881;28;20513;-63
2023/11/26 03:53:48;;;;;;;8.03;4.00;;;;;;;;;;5097312;28;20513;-63
2023/11/26 03:56:17;;;;;;;6.10;2.67;;;;;;;;;;5097333;28;20942;-63
2023/11/26 03:58:45;;;;;;;10.30;3.27;;;;;;;;;;5097607;28;20439;-63
2023/11/26 04:01:13;;;;;;;5.33;3.47;;;;;;;;;;5097143;28;20467;-63
2023/11/26 04:03:41;;;;;;;4.90;3.00;;;;;;;;;;5097548;28;20527;-63
2023/11/26 04:06:09;;;;;;;7.03;2.93;;;;;;;;;;5097186;28;20530;-63
2023/11/26 04:08:39;;;;;;;8.57;3.37;;;;;;;;;;5097223;28;20435;-63
2023/11/26 04:11:10;;;;;;;13.07;3.53;;;;;;;;;;5098208;28;20467;-63
2023/11/26 04:13:38;;;;;;;4.90;3.27;;;;;;;;;;5090994;28;20489;-63
2023/11/26 04:16:20;;;;;;;6.37;2.80;;;;;;;;;;5100592;28;20809;-63
2023/11/26 04:18:49;;;;;;;9.07;3.00;;;;;;;;;;5096798;28;20439;-63
2023/11/26 04:21:18;;;;;;;4.87;2.77;;;;;;;;;;5097712;28;20963;-63
2023/11/26 04:23:48;;;;;;;6.73;4.03;;;;;;;;;;5085064;28;20448;-63
2023/11/26 04:26:17;;;;;;;7.43;2.60;;;;;;;;;;5080376;28;20466;-63
2023/11/26 04:28:45;;;;;;;6.17;2.70;;;;;;;;;;5085781;28;20448;-63
2023/11/26 04:31:13;;;;;;;6.27;3.20;;;;;;;;;;5100031;28;20985;-63
2023/11/26 04:33:41;;;;;;;7.23;2.93;;;;;;;;;;5099553;28;20436;-64
2023/11/26 04:36:11;;;;;;;5.50;2.73;;;;;;;;;;5096500;28;20451;-63
2023/11/26 04:38:39;;;;;;;8.20;3.43;;;;;;;;;;5098656;28;20437;-63
2023/11/26 04:41:09;;;;;;;6.37;3.37;;;;;;;;;;5099756;28;20463;-63
2023/11/26 04:43:37;;;;;;;9.43;3.33;;;;;;;;;;5097601;28;20507;-63
2023/11/26 04:46:05;;;;;;;9.83;3.13;;;;;;;;;;5100190;28;20515;-63
2023/11/26 04:48:33;;;;;;;8.77;2.87;;;;;;;;;;5097044;28;20526;-63
2023/11/26 04:51:00;;;;;;;7.17;2.70;;;;;;;;;;5099344;28;20827;-63
2023/11/26 04:53:29;;;;;;;4.03;3.27;;;;;;;;;;5098991;28;20439;-63
2023/11/26 04:55:59;;;;;;;5.03;2.60;;;;;;;;;;5097493;28;20233;-63
2023/11/26 04:58:28;;;;;;;7.17;2.90;;;;;;;;;;5096683;28;20432;-63
2023/11/26 05:00:57;;;;;;;6.20;3.03;;;;;;;;;;5097114;28;20198;-63
2023/11/26 05:03:25;;;;;;;7.40;2.93;;;;;;;;;;5099081;28;20218;-63
2023/11/26 05:05:54;;;;;;;9.20;3.43;;;;;;;;;;5097915;28;20198;-63
2023/11/26 05:08:24;;;;;;;6.93;2.93;;;;;;;;;;5099651;28;20203;-63
2023/11/26 05:10:52;;;;;;;8.17;2.83;;;;;;;;;;5097393;28;20675;-63
2023/11/26 05:13:21;;;;;;;5.43;3.13;;;;;;;;;;5096729;28;20475;-63
2023/11/26 05:15:50;;;;;;;5.07;2.97;;;;;;;;;;5099069;28;20439;-63
2023/11/26 05:18:18;;;;;;;4.50;2.63;;;;;;;;;;5096333;28;20450;-63
2023/11/26 05:20:48;;;;;;;4.30;2.80;;;;;;;;;;5097069;28;20208;-63
2023/11/26 05:23:16;;;;;;;6.57;3.10;;;;;;;;;;5094148;28;20472;-63
2023/11/26 05:25:44;;;;;;;7.53;2.90;;;;;;;;;;5096838;28;20260;-63
2023/11/26 05:28:13;;;;;;;7.77;2.50;;;;;;;;;;5099241;28;20209;-63
2023/11/26 05:30:44;;;;;;;6.03;2.43;;;;;;;;;;5080525;28;20593;-63
2023/11/26 05:33:14;;;;;;;4.97;2.40;;;;;;;;;;5079297;28;20654;-63
2023/11/26 05:35:43;;;;;;;5.50;2.60;;;;;;;;;;5078647;28;20296;-63
2023/11/26 05:38:11;;;;;;;5.07;3.50;;;;;;;;;;5078964;28;20217;-63
2023/11/26 05:40:39;;;;;;;5.80;2.53;;;;;;;;;;5086013;28;20615;-63
2023/11/26 05:43:07;;;;;;;6.63;3.00;;;;;;;;;;5099197;28;20229;-63
2023/11/26 05:45:35;;;;;;;8.97;3.13;;;;;;;;;;5099388;28;20210;-63
2023/11/26 05:48:04;;;;;;;8.77;3.20;;;;;;;;;;5099186;28;20209;-63
2023/11/26 05:50:33;;;;;;;7.13;3.53;;;;;;;;;;5099010;28;20292;-63
2023/11/26 05:53:02;;;;;;;5.03;3.17;;;;;;;;;;5098622;28;20256;-63
2023/11/26 05:55:31;;;;;;;6.83;2.97;;;;;;;;;;5098839;28;20557;-63
2023/11/26 05:57:59;;;;;;;9.10;3.27;;;;;;;;;;5098790;28;20288;-63
2023/11/26 06:00:28;;;;;;;5.40;3.33;;;;;;;;;;5099026;28;20202;-63
2023/11/26 06:02:56;;;;;;;5.77;3.20;;;;;;;;;;5098755;28;20261;-63
2023/11/26 06:05:24;;;;;;;4.70;2.50;;;;;;;;;;5098773;28;20248;-63
2023/11/26 06:07:54;;;;;;;5.00;3.13;;;;;;;;;;5098864;28;20205;-63
2023/11/26 06:10:22;;;;;;;5.90;2.87;;;;;;;;;;5098861;28;20205;-63
2023/11/26 06:12:50;;;;;;;7.00;3.33;;;;;;;;;;5088002;28;20218;-63
2023/11/26 06:15:21;;;;;;;7.33;3.57;;;;;;;;;;5098517;28;20202;-63
2023/11/26 06:17:50;;;;;;;5.53;3.20;;;;;;;;;;5098469;28;20633;-63
2023/11/26 06:20:18;;;;;;;7.33;3.30;;;;;;;;;;5098462;28;20205;-63
2023/11/26 06:22:46;;;;;;;14.10;3.10;;;;;;;;;;5098378;28;20225;-63
2023/11/26 06:25:16;;;;;;;5.67;2.70;;;;;;;;;;5098483;28;20209;-63
2023/11/26 06:27:44;;;;;;;5.63;2.33;;;;;;;;;;5098505;28;20209;-63
2023/11/26 06:30:13;;;;;;;6.37;3.33;;;;;;;;;;5098550;28;20235;-63
2023/11/26 06:32:44;;;;;;;6.87;3.40;;;;;;;;;;5098330;28;20221;-63
2023/11/26 06:35:13;;;;;;;5.00;2.60;;;;;;;;;;5097940;28;20241;-63
2023/11/26 06:37:41;;;;;;;8.10;2.80;;;;;;;;;;5098139;28;20683;-63
2023/11/26 06:40:10;;;;;;;5.40;2.60;;;;;;;;;;5098285;28;20213;-62
2023/11/26 06:42:41;;;;;;;6.60;2.83;;;;;;;;;;5098153;28;20228;-62
2023/11/26 06:45:10;;;;;;;5.73;2.50;;;;;;;;;;5098180;28;20317;-63
2023/11/26 06:47:39;;;;;;;5.10;2.67;;;;;;;;;;5098088;28;20573;-62
2023/11/26 06:50:08;;;;;;;5.80;2.53;;;;;;;;;;5097877;28;20632;-63
2023/11/26 06:52:36;;;;;;;6.17;3.20;;;;;;;;;;5098035;28;20221;-63
2023/11/26 06:55:05;;;;;;;11.00;3.13;;;;;;;;;;5098304;28;20258;-63
2023/11/26 06:57:33;;;;;;;6.17;2.23;;;;;;;;;;5098223;28;20210;-63
2023/11/26 07:00:06;;;;;;;4.60;2.57;;;;;;;;;;5098024;28;20270;-63
2023/11/26 07:02:35;;;;;;;7.70;2.90;;;;;;;;;;5097665;28;20598;-63
2023/11/26 07:05:03;;;;;;;6.53;2.80;;;;;;;;;;5097708;28;20608;-62
2023/11/26 07:07:32;;;;;;;5.60;2.50;;;;;;;;;;5097674;28;20262;-63
2023/11/26 07:10:00;;;;;;;4.00;2.67;;;;;;;;;;5097821;28;20209;-63
2023/11/26 07:12:29;;;;;;;5.23;2.37;;;;;;;;;;5087215;28;20230;-62
2023/11/26 07:14:57;;;;;;;9.10;2.30;;;;;;;;;;5097714;28;20696;-62
2023/11/26 07:17:27;;;;;;;6.07;2.37;;;;;;;;;;5097641;28;20209;-63
2023/11/26 07:19:55;;;;;;;6.67;2.33;;;;;;;;;;5097762;28;20236;-62
2023/11/26 07:22:24;;;;;;;8.27;2.20;;;;;;;;;;5097733;28;20225;-62
2023/11/26 07:24:51;;;;;;;4.97;2.70;;;;;;;;;;5097671;28;20234;-63
2023/11/26 07:27:21;;;;;;;2.63;2.23;;;;;;;;;;5097873;28;20209;-63
2023/11/26 07:29:49;;;;;;;6.53;2.10;;;;;;;;;;5097657;28;20573;-63
2023/11/26 07:32:17;;;;;;;10.80;2.80;;;;;;;;;;5097726;28;20691;-63
2023/11/26 07:34:46;;;;;;;3.47;2.40;;;;;;;;;;5097364;28;20240;-63
2023/11/26 07:37:14;;;;;;;5.90;2.80;;;;;;;;;;5097645;28;20247;-60
2023/11/26 07:39:42;;;;;;;7.40;2.43;;;;;;;;;;5097715;28;20299;-61
2023/11/26 07:42:10;;;;;;;3.20;2.50;;;;;;;;;;5097500;28;20264;-60
2023/11/26 07:44:38;;;;;;;8.20;2.80;;;;;;;;;;5097948;28;20232;-60
2023/11/26 07:47:06;;;;;;;8.43;2.80;;;;;;;;;;5101660;28;20247;-60
2023/11/26 07:49:36;;;;;;;6.67;2.97;;;;;;;;;;5099796;28;20221;-60
2023/11/26 07:52:10;;;;;;;4.43;2.57;;;;;;;;;;5100646;28;20308;-60
2023/11/26 07:54:38;;;;;;;4.70;2.63;;;;;;;;;;5101543;28;20213;-60
2023/11/26 07:57:08;;;;;;;7.13;2.60;;;;;;;;;;5100677;28;20193;-60
2023/11/26 07:59:36;;;;;;;4.53;3.07;;;;;;;;;;5100421;28;20208;-60
2023/11/26 08:02:08;;;;;;;6.73;2.70;;;;;;;;;;5099516;28;20221;-60
2023/11/26 08:04:37;;;;;;;7.03;3.17;;;;;;;;;;5098477;28;20226;-60
2023/11/26 08:07:06;;;;;;;7.90;2.57;;;;;;;;;;5100408;28;20198;-60
2023/11/26 08:09:38;;;;;;;6.83;2.33;;;;;;;;;;5100753;28;20251;-60
2023/11/26 08:12:11;;;;;;;7.47;2.60;;;;;;;;;;5090769;28;20254;-60
2023/11/26 08:14:41;;;;;;;7.07;2.30;;;;;;;;;;5080638;28;20568;-60
2023/11/26 08:17:09;;;;;;;5.17;2.77;;;;;;;;;;5080948;28;20210;-60
2023/11/26 08:19:40;;;;;;;7.60;3.27;;;;;;;;;;5080884;28;20203;-60
2023/11/26 08:22:08;;;;;;;9.53;2.90;;;;;;;;;;5080530;28;20715;-60
2023/11/26 08:24:42;;;;;;;5.63;2.50;;;;;;;;;;5080519;28;20244;-60
2023/11/26 08:27:11;;;;;;;4.10;2.40;;;;;;;;;;5080439;28;20809;-60
2023/11/26 08:29:48;;;;;;;12.43;2.53;;;;;;;;;;5080672;28;20213;-60
2023/11/26 08:32:19;;;;;;;6.97;2.80;;;;;;;;;;5084955;28;20798;-60
2023/11/26 08:34:50;;;;;;;4.80;2.17;;;;;;;;;;5100039;28;20229;-60
2023/11/26 08:37:18;;;;;;;4.83;2.10;;;;;;;;;;5087523;28;20205;-60
2023/11/26 08:39:55;;;;;;;6.07;2.50;;;;;;;;;;5100301;28;20610;-60
2023/11/26 08:42:24;;;;;;;6.40;2.63;;;;;;;;;;5100548;28;20225;-60
2023/11/26 08:44:55;;;;;;;5.73;2.47;;;;;;;;;;5100192;28;20276;-60
2023/11/26 08:47:28;;;;;;;7.87;3.13;;;;;;;;;;5100371;28;20614;-60
2023/11/26 08:49:57;;;;;;;3.80;2.10;;;;;;;;;;5100142;28;20209;-60
2023/11/26 08:52:28;;;;;;;4.23;2.33;;;;;;;;;;5098991;28;20250;-60
2023/11/26 08:54:57;;;;;;;10.43;2.30;;;;;;;;;;5098853;28;20559;-60
2023/11/26 08:57:26;;;;;;;21.60;10.53;;;;;;;;;;5097914;28;20223;-64
2023/11/26 08:59:54;;;;;;;7.77;3.40;;;;;;;;;;5091475;28;20247;-64
2023/11/26 09:02:28;;;;;;;4.20;2.20;;;;;;;;;;5099429;28;20688;-64
2023/11/26 09:04:56;;;;;;;5.70;2.60;;;;;;;;;;5098738;28;20755;-64
2023/11/26 09:07:24;;;;;;;5.17;2.50;;;;;;;;;;5100138;28;20292;-64
2023/11/26 09:09:53;;;;;;;4.80;2.47;;;;;;;;;;5100308;28;20210;-64
2023/11/26 09:12:25;;;;;;;5.10;2.30;;;;;;;;;;5088672;28;20275;-63
2023/11/26 09:14:54;;;;;;;3.93;2.27;;;;;;;;;;5099319;28;20766;-63
2023/11/26 09:17:23;;;;;;;9.40;2.83;;;;;;;;;;5098859;28;20202;-64
2023/11/26 09:19:54;;;;;;;5.17;2.27;;;;;;;;;;5098559;28;20229;-64
2023/11/26 09:22:22;;;;;;;7.03;2.67;;;;;;;;;;5099564;28;20279;-63
2023/11/26 09:24:50;;;;;;;5.53;2.47;;;;;;;;;;5089415;28;20218;-63
2023/11/26 09:27:23;;;;;;;4.57;2.07;;;;;;;;;;5079598;28;20293;-64
2023/11/26 09:29:52;;;;;;;4.77;1.80;;;;;;;;;;5079822;28;20253;-63
2023/11/26 09:32:20;;;;;;;7.93;2.10;;;;;;;;;;5079440;28;20226;-64
2023/11/26 09:34:52;;;;;;;5.90;2.00;;;;;;;;;;5079292;28;20322;-64
2023/11/26 09:37:21;;;;;;;5.40;2.10;;;;;;;;;;5079825;28;20288;-63
2023/11/26 09:39:50;;;;;;;6.80;2.37;;;;;;;;;;5079051;28;20589;-63
2023/11/26 09:42:21;;;;;;;2.20;1.77;;;;;;;;;;5085752;28;20226;-63
2023/11/26 09:44:51;;;;;;;2.90;1.80;;;;;;;;;;5078825;28;20629;-64
2023/11/26 09:47:20;;;;;;;4.07;2.17;;;;;;;;;;5079125;28;20211;-64
2023/11/26 09:49:49;;;;;;;6.53;2.20;;;;;;;;;;5078468;28;20213;-63
2023/11/26 09:52:19;;;;;;;5.20;2.10;;;;;;;;;;5078626;28;20658;-64
2023/11/26 09:54:50;;;;;;;6.07;2.27;;;;;;;;;;5095629;28;20215;-64
2023/11/26 09:57:18;;;;;;;8.17;2.37;;;;;;;;;;5098913;28;20205;-64
2023/11/26 09:59:47;;;;;;;3.57;2.17;;;;;;;;;;5098797;28;20331;-64
2023/11/26 10:02:16;;;;;;;4.03;1.77;;;;;;;;;;5098966;28;20236;-63
2023/11/26 10:04:46;;;;;;;3.77;2.47;;;;;;;;;;5098772;28;20253;-64
2023/11/26 10:07:14;;;;;;;6.67;2.03;;;;;;;;;;5098218;28;20575;-63
2023/11/26 10:10:00;;;;;;;6.23;2.13;;;;;;;;;;5099075;28;20239;-63
2023/11/26 10:12:32;;;;;;;3.53;1.80;;;;;;;;;;5087616;28;20234;-64
2023/11/26 10:15:05;;;;;;;3.73;1.97;;;;;;;;;;5098781;28;20201;-64
2023/11/26 10:17:37;;;;;;;4.93;1.73;;;;;;;;;;5098552;28;20210;-63
2023/11/26 10:20:16;;;;;;;3.80;1.77;;;;;;;;;;5098292;28;20629;-63
2023/11/26 10:22:47;;;;;;;6.03;1.83;;;;;;;;;;5098151;28;20279;-64
2023/11/26 10:25:15;;;;;;;3.37;1.77;;;;;;;;;;5098405;28;20233;-63
2023/11/26 10:27:46;;;;;;;4.30;2.13;;;;;;;;;;5098581;28;20201;-63
2023/11/26 10:30:24;;;;;;;7.97;2.00;;;;;;;;;;5098426;28;20209;-64
2023/11/26 10:32:58;;;;;;;3.37;1.67;;;;;;;;;;5098486;28;20263;-64
2023/11/26 10:35:26;;;;;;;5.03;1.77;;;;;;;;;;5097917;28;20240;-64
2023/11/26 10:38:08;;;;;;;5.83;1.97;;;;;;;;;;5098343;28;20213;-64
2023/11/26 10:40:36;;;;;;;5.43;1.90;;;;;;;;;;5098138;28;20653;-64
2023/11/26 10:43:06;;;;;;;3.63;1.80;;;;;;;;;;5081001;28;20240;-63
2023/11/26 10:45:38;;;;;;;11.50;2.73;;;;;;;;;;5085155;28;20688;-63
2023/11/26 10:48:09;;;;;;;4.07;2.10;;;;;;;;;;5098256;28;20205;-63
2023/11/26 10:50:39;;;;;;;6.37;1.87;;;;;;;;;;5097978;28;20216;-63
2023/11/26 10:53:10;;;;;;;4.23;2.07;;;;;;;;;;5097811;28;20221;-63
2023/11/26 10:55:43;;;;;;;4.07;2.73;;;;;;;;;;5097853;28;20208;-63
2023/11/26 10:58:17;;;;;;;3.97;1.73;;;;;;;;;;5098038;28;20201;-64
2023/11/26 11:00:48;;;;;;;6.27;2.13;;;;;;;;;;5098228;28;20204;-64
2023/11/26 11:03:23;;;;;;;3.63;1.70;;;;;;;;;;5097996;28;20299;-63
2023/11/26 11:05:55;;;;;;;3.30;2.10;;;;;;;;;;5097336;28;20312;-64
2023/11/26 11:08:26;;;;;;;10.53;2.33;;;;;;;;;;5097960;28;20287;-63
2023/11/26 11:10:58;;;;;;;7.57;2.97;;;;;;;;;;5097715;28;20220;-63
2023/11/26 11:13:26;;;;;;;7.63;2.40;;;;;;;;;;5087162;28;20205;-64
2023/11/26 11:15:58;;;;;;;5.60;2.83;;;;;;;;;;5097531;28;20197;-63
2023/11/26 11:18:40;;;;;;;5.30;2.10;;;;;;;;;;5097754;28;20233;-63
2023/11/26 11:21:10;;;;;;;4.30;2.67;;;;;;;;;;5101079;28;20257;-64
2023/11/26 11:23:40;;;;;;;4.60;2.00;;;;;;;;;;5101807;28;20232;-63
2023/11/26 11:26:13;;;;;;;6.13;2.20;;;;;;;;;;5102317;28;20229;-63
2023/11/26 11:28:42;;;;;;;4.33;2.20;;;;;;;;;;5102087;28;20217;-63
2023/11/26 11:31:14;;;;;;;6.53;2.50;;;;;;;;;;5102136;28;20225;-63
2023/11/26 11:34:01;;;;;;;10.50;4.97;;;;;;;;;;5101353;28;20300;-63
2023/11/26 11:36:52;;;;;;;5.80;1.90;;;;;;;;;;5101421;28;20205;-63
2023/11/26 11:39:25;;;;;;;3.97;2.23;;;;;;;;;;5081888;28;20205;-63
2023/11/26 11:42:08;;;;;;;4.57;1.90;;;;;;;;;;5101546;28;20225;-63
2023/11/26 11:44:36;;;;;;;4.53;2.13;;;;;;;;;;5101689;28;20232;-63
2023/11/26 11:47:05;;;;;;;4.80;2.70;;;;;;;;;;5101511;28;20228;-63
2023/11/26 11:49:57;;;;;;;4.90;2.30;;;;;;;;;;5101179;28;20626;-64
2023/11/26 11:52:25;;;;;;;7.43;1.87;;;;;;;;;;5081518;28;20684;-63
2023/11/26 11:55:00;;;;;;;7.13;3.03;;;;;;;;;;5101519;28;20212;-63
2023/11/26 11:57:29;;;;;;;2.27;1.77;;;;;;;;;;5101552;28;20289;-64
2023/11/26 11:59:59;;;;;;;3.03;1.20;;;;;;;;;;5101163;28;20648;-63
2023/11/26 12:02:30;;;;;;;7.17;2.40;;;;;;;;;;5100894;28;20251;-62
2023/11/26 12:04:58;;;;;;;5.00;1.90;;;;;;;;;;5101154;28;20205;-63
2023/11/26 12:07:31;;;;;;;2.83;2.27;;;;;;;;;;5100661;28;20247;-63
2023/11/26 12:10:01;;;;;;;3.73;2.00;;;;;;;;;;5101137;28;20206;-62
2023/11/26 12:12:30;;;;;;;4.50;2.00;;;;;;;;;;5087607;28;20304;-61
2023/11/26 12:15:07;;;;;;;6.87;2.03;;;;;;;;;;5099526;28;20710;-61
2023/11/26 12:17:48;;;;;;;3.73;1.60;;;;;;;;;;5082566;28;20202;-61
2023/11/26 12:20:16;;;;;;;5.30;2.00;;;;;;;;;;5099709;28;20665;-61
2023/11/26 12:22:48;;;;;;;9.43;2.40;;;;;;;;;;5100974;28;20230;-61
2023/11/26 12:25:30;;;;;;;3.40;2.10;;;;;;;;;;5095283;28;20233;-61
2023/11/26 12:28:05;;;;;;;3.67;2.13;;;;;;;;;;5100910;28;20208;-61
2023/11/26 12:30:42;;;;;;;4.73;1.83;;;;;;;;;;5100293;28;20240;-62
2023/11/26 12:33:16;;;;;;;3.13;1.83;;;;;;;;;;5100325;28;20309;-61
2023/11/26 12:35:44;;;;;;;7.03;2.00;;;;;;;;;;5097305;28;20224;-61
2023/11/26 12:38:14;;;;;;;6.63;1.90;;;;;;;;;;5097143;28;20201;-61
2023/11/26 12:40:43;;;;;;;3.50;1.90;;;;;;;;;;5099957;28;20202;-62
2023/11/26 12:43:12;;;;;;;4.00;2.23;;;;;;;;;;5097954;28;20197;-61
2023/11/26 12:45:40;;;;;;;4.60;1.90;;;;;;;;;;5099617;28;20197;-62
2023/11/26 12:48:08;;;;;;;4.83;2.13;;;;;;;;;;5097238;28;20198;-62
2023/11/26 12:50:43;;;;;;;3.83;2.33;;;;;;;;;;5099584;28;20289;-62
2023/11/26 12:53:11;;;;;;;5.07;1.77;;;;;;;;;;5093270;28;20313;-61
2023/11/26 12:55:47;;;;;;;7.87;2.00;;;;;;;;;;5097923;28;20284;-62
2023/11/26 12:58:19;;;;;;;3.73;1.90;;;;;;;;;;5095222;28;20194;-62
2023/11/26 13:00:49;;;;;;;5.37;2.33;;;;;;;;;;5097563;28;20201;-61
2023/11/26 13:03:20;;;;;;;2.03;1.70;;;;;;;;;;5095722;28;20197;-62
2023/11/26 13:05:50;;;;;;;3.00;2.10;;;;;;;;;;5098783;28;20197;-62
2023/11/26 13:08:20;;;;;;;5.40;2.43;;;;;;;;;;5097459;28;20288;-62
2023/11/26 13:10:51;;;;;;;8.13;2.43;;;;;;;;;;5097650;28;20205;-62
2023/11/26 13:13:25;;;;;;;4.07;2.33;;;;;;;;;;5089865;28;20300;-62
2023/11/26 13:15:55;;;;;;;4.03;2.17;;;;;;;;;;5100014;28;20233;-62
2023/11/26 13:18:25;;;;;;;3.83;2.00;;;;;;;;;;5099686;28;20205;-62
2023/11/26 13:20:54;;;;;;;5.83;2.00;;;;;;;;;;5099561;28;20206;-61
2023/11/26 13:23:22;;;;;;;3.20;2.10;;;;;;;;;;5099898;28;20205;-61
2023/11/26 13:25:54;;;;;;;5.20;1.60;;;;;;;;;;5099511;28;20212;-62
2023/11/26 13:28:23;;;;;;;3.70;1.63;;;;;;;;;;5098259;28;20236;-61
2023/11/26 13:30:52;;;;;;;6.17;2.00;;;;;;;;;;5099173;28;20209;-62
2023/11/26 13:33:20;;;;;;;6.67;1.80;;;;;;;;;;5099572;28;20205;-61
2023/11/26 13:35:49;;;;;;;2.83;1.67;;;;;;;;;;5098955;28;20265;-62
2023/11/26 13:38:20;;;;;;;3.03;1.73;;;;;;;;;;5099407;28;20197;-62
2023/11/26 13:40:49;;;;;;;5.43;1.60;;;;;;;;;;5099567;28;20213;-62
2023/11/26 13:43:21;;;;;;;2.83;1.50;;;;;;;;;;5098365;28;20202;-62
2023/11/26 13:45:49;;;;;;;6.23;2.43;;;;;;;;;;5099020;28;20209;-62
2023/11/26 13:48:22;;;;;;;3.30;2.20;;;;;;;;;;5099202;28;20251;-62
2023/11/26 13:50:51;;;;;;;4.97;1.67;;;;;;;;;;5098466;28;20209;-61
2023/11/26 13:53:21;;;;;;;3.83;1.53;;;;;;;;;;5098895;28;20217;-62
2023/11/26 13:55:49;;;;;;;3.80;2.00;;;;;;;;;;5098833;28;20197;-61
2023/11/26 13:58:21;;;;;;;3.63;1.53;;;;;;;;;;5095777;28;20190;-62
2023/11/26 14:00:51;;;;;;;5.33;2.00;;;;;;;;;;5098644;28;20205;-62
2023/11/26 14:03:20;;;;;;;2.67;1.57;;;;;;;;;;5095991;28;20198;-62
2023/11/26 14:05:49;;;;;;;5.13;1.90;;;;;;;;;;5095189;28;20561;-62
2023/11/26 14:08:17;;;;;;;4.07;1.70;;;;;;;;;;5098296;28;20253;-62
2023/11/26 14:10:46;;;;;;;5.77;2.00;;;;;;;;;;5096438;28;20200;-63
2023/11/26 14:13:17;;;;;;;1.40;1.30;;;;;;;;;;5097874;28;20208;-62
2023/11/26 14:15:51;;;;;;;6.20;1.77;;;;;;;;;;5098508;28;20575;-62
2023/11/26 14:18:24;;;;;;;5.33;1.77;;;;;;;;;;5098932;28;20259;-63
2023/11/26 14:21:13;;;;;;;3.13;2.10;;;;;;;;;;5016291;28;20299;-62
2023/11/26 14:23:42;;;;;;;7.00;2.30;;;;;;;;;;5016460;28;20218;-62
2023/11/26 14:26:10;;;;;;;2.40;1.80;;;;;;;;;;5016341;28;20212;-62
2023/11/26 14:28:39;;;;;;;2.10;1.50;;;;;;;;;;5016285;28;20228;-62
2023/11/26 14:31:23;;;;;;;5.20;2.00;;;;;;;;;;5016183;28;20232;-62
2023/11/26 14:33:54;;;;;;;4.83;1.87;;;;;;;;;;5013969;28;20310;-62
2023/11/26 14:36:24;;;;;;;5.33;1.80;;;;;;;;;;5015876;28;20208;-62
2023/11/26 14:38:52;;;;;;;4.00;1.90;;;;;;;;;;5016160;28;20208;-62
2023/11/26 14:41:20;;;;;;;3.40;1.57;;;;;;;;;;5013972;28;20242;-62
2023/11/26 14:43:49;;;;;;;5.17;2.37;;;;;;;;;;5016015;28;20213;-62
2023/11/26 14:46:19;;;;;;;6.87;2.63;;;;;;;;;;5014445;28;20691;-62
2023/11/26 14:48:51;;;;;;;2.40;1.70;;;;;;;;;;5013678;28;20300;-62
2023/11/26 14:51:21;;;;;;;3.83;1.63;;;;;;;;;;5015098;28;20228;-61
2023/11/26 14:53:49;;;;;;;49.13;16.93;;;;;;;;;;5015455;28;20622;-61
2023/11/26 14:56:17;;;;;;;512.60;321.03;;;;;;;;;;5015521;28;20208;-62
2023/11/26 14:58:45;;;;;;;964.60;605.17;;;;;;;;;;5064357;28;20206;-62